sensor_id;sensor_type;location;lat;lon;timestamp;P1;durP1;ratioP1;P2;durP2;ratioP2
23187;SDS011;11762;59.878;17.686;2023-04-03T01:49:44;6.80;;;0.80;;
23187;SDS011;11762;59.878;17.686;2023-04-03T01:52:11;5.07;;;0.87;;
23187;SDS011;11762;59.878;17.686;2023-04-03T01:54:38;7.30;;;1.63;;
23187;SDS011;11762;59.878;17.686;2023-04-03T01:57:05;7.27;;;1.13;;
23187;SDS011;11762;59.878;17.686;2023-04-03T01:59:32;7.77;;;1.10;;
23187;SDS011;11762;59.878;17.686;2023-04-03T02:01:59;14.07;;;1.60;;
23187;SDS011;11762;59.878;17.686;2023-04-03T02:04:26;3.43;;;1.20;;
23187;SDS011;11762;59.878;17.686;2023-04-03T02:06:54;5.53;;;0.90;;
23187;SDS011;11762;59.878;17.686;2023-04-03T02:09:21;10.10;;;1.30;;
23187;SDS011;11762;59.878;17.686;2023-04-03T02:11:48;6.20;;;1.17;;
23187;SDS011;11762;59.878;17.686;2023-04-03T02:14:15;3.80;;;1.00;;
23187;SDS011;11762;59.878;17.686;2023-04-03T02:16:42;6.33;;;1.20;;
23187;SDS011;11762;59.878;17.686;2023-04-03T02:19:10;7.90;;;1.50;;
23187;SDS011;11762;59.878;17.686;2023-04-03T02:21:37;5.90;;;0.90;;
23187;SDS011;11762;59.878;17.686;2023-04-03T02:24:05;8.27;;;1.10;;
23187;SDS011;11762;59.878;17.686;2023-04-03T02:26:34;10.13;;;1.30;;
23187;SDS011;11762;59.878;17.686;2023-04-03T02:29:01;6.83;;;0.97;;
23187;SDS011;11762;59.878;17.686;2023-04-03T02:31:28;6.10;;;1.03;;
23187;SDS011;11762;59.878;17.686;2023-04-03T02:33:55;4.80;;;1.10;;
23187;SDS011;11762;59.878;17.686;2023-04-03T02:36:22;8.17;;;1.23;;
23187;SDS011;11762;59.878;17.686;2023-04-03T02:38:49;10.07;;;1.70;;
23187;SDS011;11762;59.878;17.686;2023-04-03T02:41:18;5.60;;;1.30;;
23187;SDS011;11762;59.878;17.686;2023-04-03T02:43:46;11.40;;;1.57;;
23187;SDS011;11762;59.878;17.686;2023-04-03T02:46:13;5.27;;;1.93;;
23187;SDS011;11762;59.878;17.686;2023-04-03T02:48:40;3.20;;;0.87;;
23187;SDS011;11762;59.878;17.686;2023-04-03T02:51:07;8.20;;;1.33;;
23187;SDS011;11762;59.878;17.686;2023-04-03T02:53:34;5.90;;;0.77;;
23187;SDS011;11762;59.878;17.686;2023-04-03T02:56:01;12.47;;;1.57;;
23187;SDS011;11762;59.878;17.686;2023-04-03T02:58:30;6.30;;;1.17;;
23187;SDS011;11762;59.878;17.686;2023-04-03T03:00:57;7.33;;;1.30;;
23187;SDS011;11762;59.878;17.686;2023-04-03T03:03:24;7.07;;;1.37;;
23187;SDS011;11762;59.878;17.686;2023-04-03T03:06:00;6.60;;;1.30;;
23187;SDS011;11762;59.878;17.686;2023-04-03T03:08:27;10.70;;;1.37;;
23187;SDS011;11762;59.878;17.686;2023-04-03T03:10:54;4.53;;;1.60;;
23187;SDS011;11762;59.878;17.686;2023-04-03T03:13:21;7.83;;;1.40;;
23187;SDS011;11762;59.878;17.686;2023-04-03T03:15:50;5.13;;;1.00;;
23187;SDS011;11762;59.878;17.686;2023-04-03T03:18:17;6.47;;;1.40;;
23187;SDS011;11762;59.878;17.686;2023-04-03T03:20:44;12.53;;;1.47;;
23187;SDS011;11762;59.878;17.686;2023-04-03T03:23:12;6.33;;;1.60;;
23187;SDS011;11762;59.878;17.686;2023-04-03T03:25:39;5.33;;;1.27;;
23187;SDS011;11762;59.878;17.686;2023-04-03T03:28:06;7.43;;;1.20;;
23187;SDS011;11762;59.878;17.686;2023-04-03T03:30:33;9.57;;;1.23;;
23187;SDS011;11762;59.878;17.686;2023-04-03T03:33:02;2.37;;;0.80;;
23187;SDS011;11762;59.878;17.686;2023-04-03T03:35:29;5.03;;;1.30;;
23187;SDS011;11762;59.878;17.686;2023-04-03T03:37:56;6.13;;;0.77;;
23187;SDS011;11762;59.878;17.686;2023-04-03T03:40:23;6.87;;;1.60;;
23187;SDS011;11762;59.878;17.686;2023-04-03T03:42:50;6.17;;;1.30;;
23187;SDS011;11762;59.878;17.686;2023-04-03T03:45:17;2.90;;;1.10;;
23187;SDS011;11762;59.878;17.686;2023-04-03T03:47:44;4.47;;;1.10;;
23187;SDS011;11762;59.878;17.686;2023-04-03T03:50:13;8.27;;;1.33;;
23187;SDS011;11762;59.878;17.686;2023-04-03T03:52:40;12.53;;;1.50;;
23187;SDS011;11762;59.878;17.686;2023-04-03T03:55:07;6.87;;;1.30;;
23187;SDS011;11762;59.878;17.686;2023-04-03T03:57:34;4.10;;;1.37;;
23187;SDS011;11762;59.878;17.686;2023-04-03T04:00:02;7.83;;;1.20;;
23187;SDS011;11762;59.878;17.686;2023-04-03T04:02:29;7.10;;;1.77;;
23187;SDS011;11762;59.878;17.686;2023-04-03T04:04:56;9.83;;;1.73;;
23187;SDS011;11762;59.878;17.686;2023-04-03T04:07:25;4.87;;;1.70;;
23187;SDS011;11762;59.878;17.686;2023-04-03T04:09:54;9.60;;;1.83;;
23187;SDS011;11762;59.878;17.686;2023-04-03T04:12:21;12.07;;;1.50;;
23187;SDS011;11762;59.878;17.686;2023-04-03T04:14:48;11.23;;;1.63;;
23187;SDS011;11762;59.878;17.686;2023-04-03T04:17:15;9.83;;;1.57;;
23187;SDS011;11762;59.878;17.686;2023-04-03T04:19:43;3.93;;;1.30;;
23187;SDS011;11762;59.878;17.686;2023-04-03T04:22:10;5.83;;;1.90;;
23187;SDS011;11762;59.878;17.686;2023-04-03T04:24:38;6.90;;;1.43;;
23187;SDS011;11762;59.878;17.686;2023-04-03T04:27:05;10.23;;;1.67;;
23187;SDS011;11762;59.878;17.686;2023-04-03T04:29:32;4.57;;;1.30;;
23187;SDS011;11762;59.878;17.686;2023-04-03T04:32:01;7.20;;;1.90;;
23187;SDS011;11762;59.878;17.686;2023-04-03T04:34:28;5.57;;;1.60;;
23187;SDS011;11762;59.878;17.686;2023-04-03T04:36:55;6.23;;;1.70;;
23187;SDS011;11762;59.878;17.686;2023-04-03T04:39:22;5.93;;;1.50;;
23187;SDS011;11762;59.878;17.686;2023-04-03T04:41:51;9.77;;;1.97;;
23187;SDS011;11762;59.878;17.686;2023-04-03T04:44:18;5.53;;;1.70;;
23187;SDS011;11762;59.878;17.686;2023-04-03T04:46:45;19.37;;;2.17;;
23187;SDS011;11762;59.878;17.686;2023-04-03T04:49:12;11.07;;;2.43;;
23187;SDS011;11762;59.878;17.686;2023-04-03T04:51:39;12.57;;;1.77;;
23187;SDS011;11762;59.878;17.686;2023-04-03T04:54:06;10.53;;;2.70;;
23187;SDS011;11762;59.878;17.686;2023-04-03T04:56:33;8.20;;;1.53;;
23187;SDS011;11762;59.878;17.686;2023-04-03T04:59:02;7.97;;;1.80;;
23187;SDS011;11762;59.878;17.686;2023-04-03T05:01:29;5.13;;;1.63;;
23187;SDS011;11762;59.878;17.686;2023-04-03T05:03:56;8.97;;;2.20;;
23187;SDS011;11762;59.878;17.686;2023-04-03T05:06:23;7.63;;;1.70;;
23187;SDS011;11762;59.878;17.686;2023-04-03T05:08:50;5.43;;;1.27;;
23187;SDS011;11762;59.878;17.686;2023-04-03T05:11:17;5.07;;;1.73;;
23187;SDS011;11762;59.878;17.686;2023-04-03T05:13:45;7.63;;;1.80;;
23187;SDS011;11762;59.878;17.686;2023-04-03T05:16:13;13.27;;;2.50;;
23187;SDS011;11762;59.878;17.686;2023-04-03T05:18:40;12.80;;;2.17;;
23187;SDS011;11762;59.878;17.686;2023-04-03T05:21:07;5.00;;;1.70;;
23187;SDS011;11762;59.878;17.686;2023-04-03T05:23:34;11.17;;;1.83;;
23187;SDS011;11762;59.878;17.686;2023-04-03T05:26:01;7.40;;;1.90;;
23187;SDS011;11762;59.878;17.686;2023-04-03T05:28:29;9.13;;;2.40;;
23187;SDS011;11762;59.878;17.686;2023-04-03T05:30:56;12.07;;;1.93;;
23187;SDS011;11762;59.878;17.686;2023-04-03T05:33:25;6.43;;;2.00;;
23187;SDS011;11762;59.878;17.686;2023-04-03T05:35:53;12.57;;;2.50;;
23187;SDS011;11762;59.878;17.686;2023-04-03T05:38:20;9.30;;;1.83;;
23187;SDS011;11762;59.878;17.686;2023-04-03T05:40:47;6.00;;;1.67;;
23187;SDS011;11762;59.878;17.686;2023-04-03T05:43:14;4.63;;;1.80;;
23187;SDS011;11762;59.878;17.686;2023-04-03T05:45:42;7.93;;;2.10;;
23187;SDS011;11762;59.878;17.686;2023-04-03T05:48:09;6.27;;;1.83;;
23187;SDS011;11762;59.878;17.686;2023-04-03T05:50:39;8.10;;;2.20;;
23187;SDS011;11762;59.878;17.686;2023-04-03T05:53:08;9.70;;;1.97;;
23187;SDS011;11762;59.878;17.686;2023-04-03T05:55:40;14.73;;;2.20;;
23187;SDS011;11762;59.878;17.686;2023-04-03T05:58:07;7.30;;;2.03;;
23187;SDS011;11762;59.878;17.686;2023-04-03T06:00:35;10.63;;;2.37;;
23187;SDS011;11762;59.878;17.686;2023-04-03T06:03:02;12.57;;;1.93;;
23187;SDS011;11762;59.878;17.686;2023-04-03T06:05:29;7.37;;;2.50;;
23187;SDS011;11762;59.878;17.686;2023-04-03T06:07:57;6.80;;;2.43;;
23187;SDS011;11762;59.878;17.686;2023-04-03T06:10:24;9.83;;;1.90;;
23187;SDS011;11762;59.878;17.686;2023-04-03T06:12:51;11.93;;;2.67;;
23187;SDS011;11762;59.878;17.686;2023-04-03T06:15:18;14.17;;;2.37;;
23187;SDS011;11762;59.878;17.686;2023-04-03T06:17:46;8.47;;;2.07;;
23187;SDS011;11762;59.878;17.686;2023-04-03T06:20:13;15.03;;;2.33;;
23187;SDS011;11762;59.878;17.686;2023-04-03T06:22:40;8.97;;;2.10;;
23187;SDS011;11762;59.878;17.686;2023-04-03T06:25:09;11.13;;;2.30;;
23187;SDS011;11762;59.878;17.686;2023-04-03T06:27:36;14.40;;;3.20;;
23187;SDS011;11762;59.878;17.686;2023-04-03T06:30:03;18.47;;;2.77;;
23187;SDS011;11762;59.878;17.686;2023-04-03T06:32:31;14.87;;;3.00;;
23187;SDS011;11762;59.878;17.686;2023-04-03T06:34:58;18.17;;;2.20;;
23187;SDS011;11762;59.878;17.686;2023-04-03T06:37:25;6.83;;;1.70;;
23187;SDS011;11762;59.878;17.686;2023-04-03T06:39:54;8.93;;;2.40;;
23187;SDS011;11762;59.878;17.686;2023-04-03T06:42:22;12.37;;;2.00;;
23187;SDS011;11762;59.878;17.686;2023-04-03T06:44:50;10.53;;;2.43;;
23187;SDS011;11762;59.878;17.686;2023-04-03T06:47:17;11.97;;;2.53;;
23187;SDS011;11762;59.878;17.686;2023-04-03T06:49:44;11.20;;;2.83;;
23187;SDS011;11762;59.878;17.686;2023-04-03T06:52:11;15.93;;;2.53;;
23187;SDS011;11762;59.878;17.686;2023-04-03T06:54:39;34.03;;;3.73;;
23187;SDS011;11762;59.878;17.686;2023-04-03T06:57:06;10.53;;;2.87;;
23187;SDS011;11762;59.878;17.686;2023-04-03T06:59:35;11.20;;;3.03;;
23187;SDS011;11762;59.878;17.686;2023-04-03T07:02:02;13.60;;;2.57;;
23187;SDS011;11762;59.878;17.686;2023-04-03T07:04:29;12.53;;;2.30;;
23187;SDS011;11762;59.878;17.686;2023-04-03T07:06:56;15.97;;;3.00;;
23187;SDS011;11762;59.878;17.686;2023-04-03T07:09:23;22.10;;;3.20;;
23187;SDS011;11762;59.878;17.686;2023-04-03T07:11:51;11.43;;;2.50;;
23187;SDS011;11762;59.878;17.686;2023-04-03T07:14:18;15.97;;;2.23;;
23187;SDS011;11762;59.878;17.686;2023-04-03T07:16:47;21.13;;;3.63;;
23187;SDS011;11762;59.878;17.686;2023-04-03T07:19:15;10.67;;;2.37;;
23187;SDS011;11762;59.878;17.686;2023-04-03T07:21:43;8.90;;;2.23;;
23187;SDS011;11762;59.878;17.686;2023-04-03T07:24:10;9.73;;;3.33;;
23187;SDS011;11762;59.878;17.686;2023-04-03T07:26:37;21.07;;;3.57;;
23187;SDS011;11762;59.878;17.686;2023-04-03T07:29:05;15.83;;;2.33;;
23187;SDS011;11762;59.878;17.686;2023-04-03T07:31:32;25.77;;;3.27;;
23187;SDS011;11762;59.878;17.686;2023-04-03T07:34:01;25.57;;;2.90;;
23187;SDS011;11762;59.878;17.686;2023-04-03T07:36:28;14.40;;;2.00;;
23187;SDS011;11762;59.878;17.686;2023-04-03T07:38:58;12.23;;;2.50;;
23187;SDS011;11762;59.878;17.686;2023-04-03T07:41:25;17.60;;;2.83;;
23187;SDS011;11762;59.878;17.686;2023-04-03T07:43:53;16.20;;;2.60;;
23187;SDS011;11762;59.878;17.686;2023-04-03T07:46:21;8.40;;;1.97;;
23187;SDS011;11762;59.878;17.686;2023-04-03T07:48:48;22.80;;;2.97;;
23187;SDS011;11762;59.878;17.686;2023-04-03T07:51:17;10.37;;;2.30;;
23187;SDS011;11762;59.878;17.686;2023-04-03T07:53:44;15.27;;;2.37;;
23187;SDS011;11762;59.878;17.686;2023-04-03T07:56:11;7.50;;;2.20;;
23187;SDS011;11762;59.878;17.686;2023-04-03T07:58:38;9.17;;;2.47;;
23187;SDS011;11762;59.878;17.686;2023-04-03T08:01:06;26.33;;;2.70;;
23187;SDS011;11762;59.878;17.686;2023-04-03T08:03:33;8.90;;;1.70;;
23187;SDS011;11762;59.878;17.686;2023-04-03T08:06:02;17.47;;;2.10;;
23187;SDS011;11762;59.878;17.686;2023-04-03T08:08:32;18.17;;;2.37;;
23187;SDS011;11762;59.878;17.686;2023-04-03T08:11:00;21.07;;;2.83;;
23187;SDS011;11762;59.878;17.686;2023-04-03T08:13:28;7.90;;;1.73;;
23187;SDS011;11762;59.878;17.686;2023-04-03T08:15:55;13.57;;;2.07;;
23187;SDS011;11762;59.878;17.686;2023-04-03T08:18:24;10.53;;;1.90;;
23187;SDS011;11762;59.878;17.686;2023-04-03T08:20:51;18.53;;;2.27;;
23187;SDS011;11762;59.878;17.686;2023-04-03T08:23:19;10.40;;;1.63;;
23187;SDS011;11762;59.878;17.686;2023-04-03T08:25:47;18.00;;;1.50;;
23187;SDS011;11762;59.878;17.686;2023-04-03T08:28:16;9.80;;;1.43;;
23187;SDS011;11762;59.878;17.686;2023-04-03T08:30:43;4.57;;;1.50;;
23187;SDS011;11762;59.878;17.686;2023-04-03T08:33:11;12.23;;;2.30;;
23187;SDS011;11762;59.878;17.686;2023-04-03T08:35:38;12.27;;;1.77;;
23187;SDS011;11762;59.878;17.686;2023-04-03T08:38:06;8.33;;;1.40;;
23187;SDS011;11762;59.878;17.686;2023-04-03T08:40:34;9.70;;;1.80;;
23187;SDS011;11762;59.878;17.686;2023-04-03T08:43:06;12.03;;;1.40;;
23187;SDS011;11762;59.878;17.686;2023-04-03T08:45:50;12.50;;;1.43;;
23187;SDS011;11762;59.878;17.686;2023-04-03T08:48:21;11.67;;;1.50;;
23187;SDS011;11762;59.878;17.686;2023-04-03T08:50:54;7.30;;;1.20;;
23187;SDS011;11762;59.878;17.686;2023-04-03T08:53:26;7.77;;;1.20;;
23187;SDS011;11762;59.878;17.686;2023-04-03T08:55:57;11.47;;;1.27;;
23187;SDS011;11762;59.878;17.686;2023-04-03T08:58:30;7.90;;;1.30;;
23187;SDS011;11762;59.878;17.686;2023-04-03T09:01:03;6.20;;;1.37;;
23187;SDS011;11762;59.878;17.686;2023-04-03T09:03:33;7.30;;;1.50;;
23187;SDS011;11762;59.878;17.686;2023-04-03T09:06:05;7.43;;;1.63;;
23187;SDS011;11762;59.878;17.686;2023-04-03T09:08:40;5.40;;;1.40;;
23187;SDS011;11762;59.878;17.686;2023-04-03T09:11:13;6.87;;;1.57;;
23187;SDS011;11762;59.878;17.686;2023-04-03T09:13:54;10.10;;;1.27;;
23187;SDS011;11762;59.878;17.686;2023-04-03T09:16:29;14.17;;;1.87;;
23187;SDS011;11762;59.878;17.686;2023-04-03T09:19:07;11.00;;;1.17;;
23187;SDS011;11762;59.878;17.686;2023-04-03T09:21:44;12.00;;;2.20;;
23187;SDS011;11762;59.878;17.686;2023-04-03T09:24:11;9.33;;;2.10;;
23187;SDS011;11762;59.878;17.686;2023-04-03T09:26:42;8.90;;;1.30;;
23187;SDS011;11762;59.878;17.686;2023-04-03T09:29:15;18.43;;;2.13;;
23187;SDS011;11762;59.878;17.686;2023-04-03T09:31:46;12.03;;;2.00;;
23187;SDS011;11762;59.878;17.686;2023-04-03T09:34:17;7.10;;;1.53;;
23187;SDS011;11762;59.878;17.686;2023-04-03T09:36:49;12.73;;;1.50;;
23187;SDS011;11762;59.878;17.686;2023-04-03T09:39:17;9.10;;;0.97;;
23187;SDS011;11762;59.878;17.686;2023-04-03T09:41:59;5.97;;;1.33;;
23187;SDS011;11762;59.878;17.686;2023-04-03T09:44:30;9.77;;;1.77;;
23187;SDS011;11762;59.878;17.686;2023-04-03T09:46:58;9.37;;;1.70;;
23187;SDS011;11762;59.878;17.686;2023-04-03T09:49:26;10.50;;;1.53;;
23187;SDS011;11762;59.878;17.686;2023-04-03T09:51:53;6.10;;;1.10;;
23187;SDS011;11762;59.878;17.686;2023-04-03T09:54:24;6.60;;;0.90;;
23187;SDS011;11762;59.878;17.686;2023-04-03T09:56:56;19.53;;;1.93;;
23187;SDS011;11762;59.878;17.686;2023-04-03T09:59:27;5.60;;;1.90;;
23187;SDS011;11762;59.878;17.686;2023-04-03T10:01:59;12.20;;;3.00;;
23187;SDS011;11762;59.878;17.686;2023-04-03T10:04:36;5.83;;;1.93;;
23187;SDS011;11762;59.878;17.686;2023-04-03T10:07:05;10.37;;;1.73;;
23187;SDS011;11762;59.878;17.686;2023-04-03T10:09:54;4.97;;;1.33;;
23187;SDS011;11762;59.878;17.686;2023-04-03T10:12:23;9.40;;;1.30;;
23187;SDS011;11762;59.878;17.686;2023-04-03T10:14:54;3.07;;;1.40;;
23187;SDS011;11762;59.878;17.686;2023-04-03T10:17:25;5.50;;;1.23;;
23187;SDS011;11762;59.878;17.686;2023-04-03T10:20:06;12.77;;;1.57;;
23187;SDS011;11762;59.878;17.686;2023-04-03T10:22:44;5.33;;;1.33;;
23187;SDS011;11762;59.878;17.686;2023-04-03T10:25:20;10.30;;;1.23;;
23187;SDS011;11762;59.878;17.686;2023-04-03T10:27:53;8.80;;;1.20;;
23187;SDS011;11762;59.878;17.686;2023-04-03T10:30:29;6.33;;;1.37;;
23187;SDS011;11762;59.878;17.686;2023-04-03T10:33:11;5.40;;;1.30;;
23187;SDS011;11762;59.878;17.686;2023-04-03T10:35:51;4.93;;;1.17;;
23187;SDS011;11762;59.878;17.686;2023-04-03T10:38:31;8.30;;;1.60;;
23187;SDS011;11762;59.878;17.686;2023-04-03T10:41:02;5.00;;;1.27;;
23187;SDS011;11762;59.878;17.686;2023-04-03T10:43:36;5.37;;;1.03;;
23187;SDS011;11762;59.878;17.686;2023-04-03T10:46:09;4.67;;;0.90;;
23187;SDS011;11762;59.878;17.686;2023-04-03T10:48:47;7.37;;;1.20;;
23187;SDS011;11762;59.878;17.686;2023-04-03T10:51:27;7.03;;;1.17;;
23187;SDS011;11762;59.878;17.686;2023-04-03T10:54:01;5.67;;;1.10;;
23187;SDS011;11762;59.878;17.686;2023-04-03T10:56:35;14.77;;;1.73;;
23187;SDS011;11762;59.878;17.686;2023-04-03T10:59:13;3.73;;;0.93;;
23187;SDS011;11762;59.878;17.686;2023-04-03T11:01:46;3.80;;;0.90;;
23187;SDS011;11762;59.878;17.686;2023-04-03T11:04:18;9.30;;;1.10;;
23187;SDS011;11762;59.878;17.686;2023-04-03T11:06:48;5.37;;;1.17;;
23187;SDS011;11762;59.878;17.686;2023-04-03T11:09:22;28.50;;;1.40;;
23187;SDS011;11762;59.878;17.686;2023-04-03T11:11:53;5.83;;;0.90;;
23187;SDS011;11762;59.878;17.686;2023-04-03T11:14:26;4.20;;;0.73;;
23187;SDS011;11762;59.878;17.686;2023-04-03T11:16:59;6.70;;;0.87;;
23187;SDS011;11762;59.878;17.686;2023-04-03T11:19:49;6.97;;;0.77;;
23187;SDS011;11762;59.878;17.686;2023-04-03T11:22:24;9.47;;;1.30;;
23187;SDS011;11762;59.878;17.686;2023-04-03T11:24:56;30.77;;;2.53;;
23187;SDS011;11762;59.878;17.686;2023-04-03T11:27:30;8.70;;;1.00;;
23187;SDS011;11762;59.878;17.686;2023-04-03T11:30:05;8.37;;;1.03;;
23187;SDS011;11762;59.878;17.686;2023-04-03T11:32:41;4.83;;;0.73;;
23187;SDS011;11762;59.878;17.686;2023-04-03T11:35:25;5.27;;;1.57;;
23187;SDS011;11762;59.878;17.686;2023-04-03T11:37:54;13.13;;;1.23;;
23187;SDS011;11762;59.878;17.686;2023-04-03T11:40:23;5.30;;;1.53;;
23187;SDS011;11762;59.878;17.686;2023-04-03T11:42:55;5.57;;;1.00;;
23187;SDS011;11762;59.878;17.686;2023-04-03T11:45:35;4.10;;;0.90;;
23187;SDS011;11762;59.878;17.686;2023-04-03T11:48:04;7.27;;;0.77;;
23187;SDS011;11762;59.878;17.686;2023-04-03T11:50:42;4.40;;;0.77;;
23187;SDS011;11762;59.878;17.686;2023-04-03T11:53:26;8.77;;;1.10;;
23187;SDS011;11762;59.878;17.686;2023-04-03T11:55:57;1.67;;;0.57;;
23187;SDS011;11762;59.878;17.686;2023-04-03T11:58:26;7.87;;;0.70;;
23187;SDS011;11762;59.878;17.686;2023-04-03T12:00:58;5.33;;;0.83;;
23187;SDS011;11762;59.878;17.686;2023-04-03T12:12:58;3.47;;;0.67;;
23187;SDS011;11762;59.878;17.686;2023-04-03T12:24:26;19.63;;;1.33;;
23187;SDS011;11762;59.878;17.686;2023-04-03T12:30:01;3.40;;;0.53;;
23187;SDS011;11762;59.878;17.686;2023-04-03T12:35:39;9.07;;;1.13;;
23187;SDS011;11762;59.878;17.686;2023-04-03T12:41:18;7.10;;;0.50;;
23187;SDS011;11762;59.878;17.686;2023-04-03T12:43:59;10.37;;;0.93;;
23187;SDS011;11762;59.878;17.686;2023-04-03T12:46:37;3.67;;;0.60;;
23187;SDS011;11762;59.878;17.686;2023-04-03T12:49:18;5.30;;;0.70;;
23187;SDS011;11762;59.878;17.686;2023-04-03T12:51:53;5.37;;;1.10;;
23187;SDS011;11762;59.878;17.686;2023-04-03T12:54:21;5.60;;;0.87;;
23187;SDS011;11762;59.878;17.686;2023-04-03T12:56:52;23.97;;;2.47;;
23187;SDS011;11762;59.878;17.686;2023-04-03T12:59:35;4.30;;;0.60;;
23187;SDS011;11762;59.878;17.686;2023-04-03T13:02:09;8.50;;;0.90;;
23187;SDS011;11762;59.878;17.686;2023-04-03T13:04:43;5.30;;;0.80;;
23187;SDS011;11762;59.878;17.686;2023-04-03T13:07:18;4.70;;;0.93;;
23187;SDS011;11762;59.878;17.686;2023-04-03T13:10:00;11.70;;;0.93;;
23187;SDS011;11762;59.878;17.686;2023-04-03T13:12:30;6.07;;;0.60;;
23187;SDS011;11762;59.878;17.686;2023-04-03T13:14:58;6.43;;;0.70;;
23187;SDS011;11762;59.878;17.686;2023-04-03T13:17:30;5.60;;;0.97;;
23187;SDS011;11762;59.878;17.686;2023-04-03T13:20:09;3.37;;;1.00;;
23187;SDS011;11762;59.878;17.686;2023-04-03T13:22:38;1.87;;;0.70;;
23187;SDS011;11762;59.878;17.686;2023-04-03T13:25:13;9.30;;;1.37;;
23187;SDS011;11762;59.878;17.686;2023-04-03T13:27:42;5.73;;;0.80;;
23187;SDS011;11762;59.878;17.686;2023-04-03T13:30:19;37.20;;;3.03;;
23187;SDS011;11762;59.878;17.686;2023-04-03T13:32:51;11.27;;;1.03;;
23187;SDS011;11762;59.878;17.686;2023-04-03T13:35:26;5.20;;;0.90;;
23187;SDS011;11762;59.878;17.686;2023-04-03T13:37:55;1.37;;;0.37;;
23187;SDS011;11762;59.878;17.686;2023-04-03T13:40:23;13.10;;;1.43;;
23187;SDS011;11762;59.878;17.686;2023-04-03T13:42:58;13.83;;;2.00;;
23187;SDS011;11762;59.878;17.686;2023-04-03T13:45:27;11.63;;;1.33;;
23187;SDS011;11762;59.878;17.686;2023-04-03T13:48:08;5.00;;;0.73;;
23187;SDS011;11762;59.878;17.686;2023-04-03T13:50:53;4.00;;;0.70;;
23187;SDS011;11762;59.878;17.686;2023-04-03T13:53:24;8.27;;;1.07;;
23187;SDS011;11762;59.878;17.686;2023-04-03T13:55:56;3.17;;;0.60;;
23187;SDS011;11762;59.878;17.686;2023-04-03T13:58:26;7.70;;;0.80;;
23187;SDS011;11762;59.878;17.686;2023-04-03T14:00:55;2.07;;;0.47;;
23187;SDS011;11762;59.878;17.686;2023-04-03T14:03:28;3.93;;;0.70;;
23187;SDS011;11762;59.878;17.686;2023-04-03T14:05:57;7.60;;;1.17;;
23187;SDS011;11762;59.878;17.686;2023-04-03T14:08:25;3.07;;;0.90;;
23187;SDS011;11762;59.878;17.686;2023-04-03T14:10:52;2.30;;;0.53;;
23187;SDS011;11762;59.878;17.686;2023-04-03T14:13:20;12.13;;;0.83;;
23187;SDS011;11762;59.878;17.686;2023-04-03T14:15:47;3.73;;;0.50;;
23187;SDS011;11762;59.878;17.686;2023-04-03T14:18:17;14.60;;;0.90;;
23187;SDS011;11762;59.878;17.686;2023-04-03T14:20:48;4.40;;;0.50;;
23187;SDS011;11762;59.878;17.686;2023-04-03T14:23:15;11.57;;;0.60;;
23187;SDS011;11762;59.878;17.686;2023-04-03T14:25:43;7.40;;;0.60;;
23187;SDS011;11762;59.878;17.686;2023-04-03T14:28:14;9.37;;;0.97;;
23187;SDS011;11762;59.878;17.686;2023-04-03T14:30:44;23.53;;;1.17;;
23187;SDS011;11762;59.878;17.686;2023-04-03T14:33:13;4.47;;;0.60;;
23187;SDS011;11762;59.878;17.686;2023-04-03T14:35:41;22.43;;;1.20;;
23187;SDS011;11762;59.878;17.686;2023-04-03T14:38:15;30.00;;;2.50;;
23187;SDS011;11762;59.878;17.686;2023-04-03T14:40:48;5.67;;;0.93;;
23187;SDS011;11762;59.878;17.686;2023-04-03T14:43:16;6.47;;;0.70;;
23187;SDS011;11762;59.878;17.686;2023-04-03T14:45:45;16.73;;;1.13;;
23187;SDS011;11762;59.878;17.686;2023-04-03T14:48:15;8.77;;;0.70;;
23187;SDS011;11762;59.878;17.686;2023-04-03T14:50:45;7.30;;;1.23;;
23187;SDS011;11762;59.878;17.686;2023-04-03T14:53:14;2.13;;;0.60;;
23187;SDS011;11762;59.878;17.686;2023-04-03T14:55:43;4.00;;;1.00;;
23187;SDS011;11762;59.878;17.686;2023-04-03T14:58:12;3.87;;;0.77;;
23187;SDS011;11762;59.878;17.686;2023-04-03T15:00:41;5.50;;;0.93;;
23187;SDS011;11762;59.878;17.686;2023-04-03T15:03:12;4.03;;;0.83;;
23187;SDS011;11762;59.878;17.686;2023-04-03T15:05:41;8.63;;;1.07;;
23187;SDS011;11762;59.878;17.686;2023-04-03T15:08:19;4.77;;;0.70;;
23187;SDS011;11762;59.878;17.686;2023-04-03T15:10:48;3.90;;;0.57;;
23187;SDS011;11762;59.878;17.686;2023-04-03T15:13:18;6.00;;;0.80;;
23187;SDS011;11762;59.878;17.686;2023-04-03T15:15:45;6.63;;;0.80;;
23187;SDS011;11762;59.878;17.686;2023-04-03T15:18:14;9.57;;;1.20;;
23187;SDS011;11762;59.878;17.686;2023-04-03T15:20:44;3.03;;;0.80;;
23187;SDS011;11762;59.878;17.686;2023-04-03T15:23:12;11.33;;;1.40;;
23187;SDS011;11762;59.878;17.686;2023-04-03T15:25:42;3.63;;;0.73;;
23187;SDS011;11762;59.878;17.686;2023-04-03T15:28:11;12.10;;;0.90;;
23187;SDS011;11762;59.878;17.686;2023-04-03T15:30:45;8.87;;;1.40;;
23187;SDS011;11762;59.878;17.686;2023-04-03T15:33:12;8.23;;;0.90;;
23187;SDS011;11762;59.878;17.686;2023-04-03T15:35:40;22.50;;;2.83;;
23187;SDS011;11762;59.878;17.686;2023-04-03T15:38:08;3.83;;;0.80;;
23187;SDS011;11762;59.878;17.686;2023-04-03T15:40:35;8.77;;;1.20;;
23187;SDS011;11762;59.878;17.686;2023-04-03T15:43:04;6.17;;;1.07;;
23187;SDS011;11762;59.878;17.686;2023-04-03T15:45:31;4.07;;;1.47;;
23187;SDS011;11762;59.878;17.686;2023-04-03T15:48:00;7.97;;;1.03;;
23187;SDS011;11762;59.878;17.686;2023-04-03T15:50:28;13.93;;;1.50;;
23187;SDS011;11762;59.878;17.686;2023-04-03T15:52:55;9.07;;;0.80;;
23187;SDS011;11762;59.878;17.686;2023-04-03T15:55:23;8.33;;;1.10;;
23187;SDS011;11762;59.878;17.686;2023-04-03T15:57:51;6.33;;;0.87;;
23187;SDS011;11762;59.878;17.686;2023-04-03T16:00:20;8.53;;;0.80;;
23187;SDS011;11762;59.878;17.686;2023-04-03T16:02:48;8.27;;;1.57;;
23187;SDS011;11762;59.878;17.686;2023-04-03T16:05:18;8.23;;;0.90;;
23187;SDS011;11762;59.878;17.686;2023-04-03T16:07:45;10.87;;;0.90;;
23187;SDS011;11762;59.878;17.686;2023-04-03T16:10:14;6.97;;;0.80;;
23187;SDS011;11762;59.878;17.686;2023-04-03T16:12:42;9.23;;;1.30;;
23187;SDS011;11762;59.878;17.686;2023-04-03T16:15:10;5.30;;;0.70;;
23187;SDS011;11762;59.878;17.686;2023-04-03T16:17:39;5.30;;;0.90;;
23187;SDS011;11762;59.878;17.686;2023-04-03T16:20:07;2.20;;;0.70;;
23187;SDS011;11762;59.878;17.686;2023-04-03T16:22:36;19.23;;;1.20;;
23187;SDS011;11762;59.878;17.686;2023-04-03T16:25:04;6.93;;;0.80;;
23187;SDS011;11762;59.878;17.686;2023-04-03T16:27:32;9.97;;;1.30;;
23187;SDS011;11762;59.878;17.686;2023-04-03T16:29:59;9.07;;;1.57;;
23187;SDS011;11762;59.878;17.686;2023-04-03T16:32:27;5.33;;;0.93;;
23187;SDS011;11762;59.878;17.686;2023-04-03T16:34:58;7.33;;;1.00;;
23187;SDS011;11762;59.878;17.686;2023-04-03T16:37:25;2.50;;;0.70;;
23187;SDS011;11762;59.878;17.686;2023-04-03T16:39:52;6.23;;;0.93;;
23187;SDS011;11762;59.878;17.686;2023-04-03T16:42:19;4.80;;;0.70;;
23187;SDS011;11762;59.878;17.686;2023-04-03T16:44:46;5.10;;;0.40;;
23187;SDS011;11762;59.878;17.686;2023-04-03T16:47:13;5.17;;;0.70;;
23187;SDS011;11762;59.878;17.686;2023-04-03T16:49:44;3.07;;;0.53;;
23187;SDS011;11762;59.878;17.686;2023-04-03T16:52:12;7.83;;;0.70;;
23187;SDS011;11762;59.878;17.686;2023-04-03T16:54:40;7.40;;;1.63;;
23187;SDS011;11762;59.878;17.686;2023-04-03T16:57:07;4.83;;;0.87;;
23187;SDS011;11762;59.878;17.686;2023-04-03T16:59:34;5.10;;;0.80;;
23187;SDS011;11762;59.878;17.686;2023-04-03T17:02:01;11.53;;;0.90;;